Friday, October 19, 2018, 11:32 AM EDT
Back to Local

KVSF, Hartness State Airport

Location: Perkinsville, VT, United States Lat: 43.35
Local Time: 11:32 AM EDT (15:32 GMT) Lon: -72.517
Time Zone: US/Eastern Elev: 577 ft

Show me the last for .
Show Decoded

2018-10-19 10:54 METAR KVSF 191454Z AUTO 18008KT 10SM CLR 09/02 A3011 RMK AO2 SLP201 T00940017
                 58023 =
2018-10-19 09:54 METAR KVSF 191354Z AUTO 00000KT 10SM CLR 05/01 A3013 RMK AO2 SLP210 T00500011 =
2018-10-19 08:54 METAR KVSF 191254Z AUTO 00000KT 10SM FEW032 00/M01 A3017 RMK AO2 SLP223
                 T00001011 =
2018-10-19 07:54 METAR KVSF 191154Z AUTO 00000KT 10SM BKN035 M02/M03 A3018 RMK AO2 SLP228
                 T10221028 11017 21033 58003 =
2018-10-19 06:54 METAR KVSF 191054Z AUTO 00000KT 10SM SCT037 M03/M03 A3018 RMK AO2 SLP229
                 T10331033 =
2018-10-19 05:54 METAR KVSF 190954Z AUTO 00000KT 10SM CLR M03/M03 A3018 RMK AO2 SLP229 T10281033
                 =
2018-10-19 04:54 METAR KVSF 190854Z AUTO 00000KT 10SM SCT039 M02/M03 A3019 RMK AO2 SLP229
                 T10221028 58016 =
2018-10-19 03:54 METAR KVSF 190754Z AUTO 00000KT 10SM BKN040 BKN080 M02/M03 A3020 RMK AO2 SLP235
                 T10221033 =
2018-10-19 02:54 METAR KVSF 190654Z AUTO 00000KT 10SM OVC038 M02/M03 A3022 RMK AO2 SLP241
                 T10171033 =
2018-10-19 01:54 METAR KVSF 190554Z AUTO 00000KT 10SM FEW039 M02/M04 A3023 RMK AO2 SLP245
                 T10221039 10000 21028 56003 =
2018-10-19 00:54 METAR KVSF 190454Z AUTO 05003KT 10SM CLR M02/M04 A3024 RMK AO2 SLP247 T10221044
                 400561028 =
2018-10-18 23:54 METAR KVSF 190354Z AUTO 04003KT 10SM CLR M02/M05 A3023 RMK AO2 SLP243 T10171050
                 =
2018-10-18 22:54 METAR KVSF 190254Z AUTO 00000KT 10SM CLR M01/M06 A3024 RMK AO2 SLP249 T10061056
                 52003 =
2018-10-18 21:54 METAR KVSF 190154Z AUTO 00000KT 10SM CLR M02/M05 A3024 RMK AO2 SLP249 T10171050
                 =
2018-10-18 20:54 METAR KVSF 190054Z AUTO 00000KT 10SM CLR M02/M06 A3024 RMK AO2 SLP247 T10171056
                 =
2018-10-18 19:54 METAR KVSF 182354Z AUTO 00000KT 10SM CLR M01/M06 A3024 RMK AO2 SLP246 60000
                 T10111056 10056 21011 50007 =
2018-10-18 18:54 METAR KVSF 182254Z AUTO 00000KT 10SM CLR 01/M07 A3024 RMK AO2 RAE09 SLP247 P0000
                 T00111067 =
2018-10-18 17:54 METAR KVSF 182154Z AUTO 30005KT 10SM -RA CLR 04/M09 A3023 RMK AO2 SLP242 P0000
                 T00441094 =
2018-10-18 16:54 METAR KVSF 182054Z AUTO VRB06KT 10SM -RA CLR 05/M09 A3022 RMK AO2 SLP239 P0000
                 60000 T00501094 55003 =
2018-10-18 15:54 METAR KVSF 181954Z AUTO 30014G24KT 10SM -RA CLR 06/M10 A3021 RMK AO2 SLP237
                 P0000 T00561100 =
2018-10-18 14:54 METAR KVSF 181854Z AUTO 29019G25KT 10SM -RA CLR 05/M09 A3021 RMK AO2 PK WND
                 28027/1817 SLP236 P0000 T00501094 =
2018-10-18 13:54 METAR KVSF 181754Z AUTO 30009G22KT 280V350 10SM -RA FEW060 05/M08 A3022 RMK AO2
                 SLP240 P0000 60000 T00501083 10050 20000 56008 =
2018-10-18 12:54 METAR KVSF 181654Z AUTO 30014G20KT 250V330 9SM -RA CLR 04/M08 A3023 RMK AO2
                 RAB36SNE52 SLP241 P0000 T00441083 =
2018-10-18 11:54 METAR KVSF 181554Z AUTO 30009G19KT 270V340 9SM -SN FEW048 03/M08 A3024 RMK AO2
                 SLP245 P0000 T00281078 =

Support USWX by starting your Amazon purchase here.